sensor_id;sensor_type;location;lat;lon;timestamp;P1;durP1;ratioP1;P2;durP2;ratioP2
1010;SDS011;494;48.744;10.106;2023-04-29T00:01:45;54.23;;;19.30;;
1010;SDS011;494;48.744;10.106;2023-04-29T00:04:14;40.03;;;16.47;;
1010;SDS011;494;48.744;10.106;2023-04-29T00:06:44;64.17;;;17.00;;
1010;SDS011;494;48.744;10.106;2023-04-29T00:09:16;24.73;;;15.53;;
1010;SDS011;494;48.744;10.106;2023-04-29T00:11:53;60.60;;;15.83;;
1010;SDS011;494;48.744;10.106;2023-04-29T00:14:22;47.27;;;13.60;;
1010;SDS011;494;48.744;10.106;2023-04-29T00:16:51;45.40;;;14.80;;
1010;SDS011;494;48.744;10.106;2023-04-29T00:19:20;21.50;;;12.80;;
1010;SDS011;494;48.744;10.106;2023-04-29T00:21:52;20.93;;;12.33;;
1010;SDS011;494;48.744;10.106;2023-04-29T00:24:21;25.43;;;13.70;;
1010;SDS011;494;48.744;10.106;2023-04-29T00:26:53;22.87;;;13.17;;
1010;SDS011;494;48.744;10.106;2023-04-29T00:29:22;20.70;;;12.90;;
1010;SDS011;494;48.744;10.106;2023-04-29T00:31:51;14.13;;;12.20;;
1010;SDS011;494;48.744;10.106;2023-04-29T00:34:20;19.20;;;13.73;;
1010;SDS011;494;48.744;10.106;2023-04-29T00:36:50;20.07;;;12.80;;
1010;SDS011;494;48.744;10.106;2023-04-29T00:39:19;18.77;;;11.20;;
1010;SDS011;494;48.744;10.106;2023-04-29T00:41:48;28.80;;;14.33;;
1010;SDS011;494;48.744;10.106;2023-04-29T00:44:18;25.50;;;13.60;;
1010;SDS011;494;48.744;10.106;2023-04-29T00:46:48;20.87;;;11.77;;
1010;SDS011;494;48.744;10.106;2023-04-29T00:49:17;18.87;;;13.40;;
1010;SDS011;494;48.744;10.106;2023-04-29T00:51:49;24.40;;;13.47;;
1010;SDS011;494;48.744;10.106;2023-04-29T00:54:19;17.00;;;13.37;;
1010;SDS011;494;48.744;10.106;2023-04-29T00:56:49;23.77;;;11.10;;
1010;SDS011;494;48.744;10.106;2023-04-29T00:59:21;21.00;;;13.60;;
1010;SDS011;494;48.744;10.106;2023-04-29T01:01:58;37.60;;;10.43;;
1010;SDS011;494;48.744;10.106;2023-04-29T01:04:29;17.27;;;10.77;;
1010;SDS011;494;48.744;10.106;2023-04-29T01:07:00;12.23;;;9.30;;
1010;SDS011;494;48.744;10.106;2023-04-29T01:09:44;13.70;;;9.73;;
1010;SDS011;494;48.744;10.106;2023-04-29T01:12:25;15.70;;;10.00;;
1010;SDS011;494;48.744;10.106;2023-04-29T01:15:04;16.27;;;11.17;;
1010;SDS011;494;48.744;10.106;2023-04-29T01:17:49;14.90;;;11.10;;
1010;SDS011;494;48.744;10.106;2023-04-29T01:20:32;23.33;;;10.93;;
1010;SDS011;494;48.744;10.106;2023-04-29T01:23:03;14.40;;;10.33;;
1010;SDS011;494;48.744;10.106;2023-04-29T01:25:34;16.60;;;11.33;;
1010;SDS011;494;48.744;10.106;2023-04-29T01:28:05;14.17;;;11.13;;
1010;SDS011;494;48.744;10.106;2023-04-29T01:30:59;16.87;;;12.13;;
1010;SDS011;494;48.744;10.106;2023-04-29T01:33:39;18.47;;;12.33;;
1010;SDS011;494;48.744;10.106;2023-04-29T01:36:19;13.73;;;11.20;;
1010;SDS011;494;48.744;10.106;2023-04-29T01:38:59;10.80;;;7.63;;
1010;SDS011;494;48.744;10.106;2023-04-29T01:41:42;14.20;;;6.70;;
1010;SDS011;494;48.744;10.106;2023-04-29T01:44:22;14.10;;;5.73;;
1010;SDS011;494;48.744;10.106;2023-04-29T01:46:55;11.60;;;6.73;;
1010;SDS011;494;48.744;10.106;2023-04-29T01:49:28;11.57;;;5.73;;
1010;SDS011;494;48.744;10.106;2023-04-29T01:52:06;11.47;;;5.93;;
1010;SDS011;494;48.744;10.106;2023-04-29T01:54:34;12.00;;;5.83;;
1010;SDS011;494;48.744;10.106;2023-04-29T01:57:05;10.83;;;5.70;;
1010;SDS011;494;48.744;10.106;2023-04-29T01:59:34;9.67;;;4.97;;
1010;SDS011;494;48.744;10.106;2023-04-29T02:02:38;12.03;;;6.03;;
1010;SDS011;494;48.744;10.106;2023-04-29T02:05:08;14.43;;;6.20;;
1010;SDS011;494;48.744;10.106;2023-04-29T02:07:37;12.17;;;6.33;;
1010;SDS011;494;48.744;10.106;2023-04-29T02:10:07;12.80;;;5.80;;
1010;SDS011;494;48.744;10.106;2023-04-29T02:12:39;13.67;;;5.43;;
1010;SDS011;494;48.744;10.106;2023-04-29T02:15:08;12.93;;;6.83;;
1010;SDS011;494;48.744;10.106;2023-04-29T02:17:39;12.60;;;6.50;;
1010;SDS011;494;48.744;10.106;2023-04-29T02:20:10;12.87;;;6.87;;
1010;SDS011;494;48.744;10.106;2023-04-29T02:22:40;12.90;;;6.80;;
1010;SDS011;494;48.744;10.106;2023-04-29T02:25:10;13.80;;;6.30;;
1010;SDS011;494;48.744;10.106;2023-04-29T02:27:40;12.30;;;6.40;;
1010;SDS011;494;48.744;10.106;2023-04-29T02:30:10;14.73;;;6.37;;
1010;SDS011;494;48.744;10.106;2023-04-29T02:32:39;11.97;;;6.60;;
1010;SDS011;494;48.744;10.106;2023-04-29T02:35:08;11.97;;;7.40;;
1010;SDS011;494;48.744;10.106;2023-04-29T02:37:38;11.33;;;6.57;;
1010;SDS011;494;48.744;10.106;2023-04-29T02:40:10;11.23;;;5.10;;
1010;SDS011;494;48.744;10.106;2023-04-29T02:42:43;11.63;;;5.50;;
1010;SDS011;494;48.744;10.106;2023-04-29T02:45:13;13.20;;;6.03;;
1010;SDS011;494;48.744;10.106;2023-04-29T02:47:43;14.63;;;5.97;;
1010;SDS011;494;48.744;10.106;2023-04-29T02:50:12;13.53;;;6.17;;
1010;SDS011;494;48.744;10.106;2023-04-29T02:52:41;13.90;;;8.50;;
1010;SDS011;494;48.744;10.106;2023-04-29T02:55:10;16.43;;;7.20;;
1010;SDS011;494;48.744;10.106;2023-04-29T02:57:39;13.23;;;7.30;;
1010;SDS011;494;48.744;10.106;2023-04-29T03:00:11;12.70;;;7.07;;
1010;SDS011;494;48.744;10.106;2023-04-29T03:02:39;11.53;;;7.13;;
1010;SDS011;494;48.744;10.106;2023-04-29T03:05:08;17.73;;;7.03;;
1010;SDS011;494;48.744;10.106;2023-04-29T03:07:37;14.70;;;10.60;;
1010;SDS011;494;48.744;10.106;2023-04-29T03:10:07;14.23;;;6.90;;
1010;SDS011;494;48.744;10.106;2023-04-29T03:12:37;15.73;;;9.77;;
1010;SDS011;494;48.744;10.106;2023-04-29T03:15:06;17.63;;;7.33;;
1010;SDS011;494;48.744;10.106;2023-04-29T03:17:37;14.50;;;9.00;;
1010;SDS011;494;48.744;10.106;2023-04-29T03:20:11;19.33;;;13.30;;
1010;SDS011;494;48.744;10.106;2023-04-29T03:22:41;15.37;;;12.87;;
1010;SDS011;494;48.744;10.106;2023-04-29T03:25:10;15.80;;;11.97;;
1010;SDS011;494;48.744;10.106;2023-04-29T03:27:39;14.73;;;12.50;;
1010;SDS011;494;48.744;10.106;2023-04-29T03:30:09;17.97;;;11.97;;
1010;SDS011;494;48.744;10.106;2023-04-29T03:32:40;16.80;;;12.27;;
1010;SDS011;494;48.744;10.106;2023-04-29T03:35:10;15.97;;;12.53;;
1010;SDS011;494;48.744;10.106;2023-04-29T03:37:41;19.03;;;13.70;;
1010;SDS011;494;48.744;10.106;2023-04-29T03:40:11;14.37;;;10.63;;
1010;SDS011;494;48.744;10.106;2023-04-29T03:42:41;14.90;;;10.73;;
1010;SDS011;494;48.744;10.106;2023-04-29T03:45:10;17.80;;;13.53;;
1010;SDS011;494;48.744;10.106;2023-04-29T03:47:41;18.30;;;13.23;;
1010;SDS011;494;48.744;10.106;2023-04-29T03:50:11;14.30;;;8.87;;
1010;SDS011;494;48.744;10.106;2023-04-29T03:52:40;13.80;;;8.30;;
1010;SDS011;494;48.744;10.106;2023-04-29T03:55:09;17.40;;;9.50;;
1010;SDS011;494;48.744;10.106;2023-04-29T03:57:38;13.87;;;8.47;;
1010;SDS011;494;48.744;10.106;2023-04-29T04:00:08;15.93;;;9.60;;
1010;SDS011;494;48.744;10.106;2023-04-29T04:02:39;17.30;;;9.10;;
1010;SDS011;494;48.744;10.106;2023-04-29T04:05:10;14.47;;;8.93;;
1010;SDS011;494;48.744;10.106;2023-04-29T04:07:39;14.93;;;7.70;;
1010;SDS011;494;48.744;10.106;2023-04-29T04:10:09;16.73;;;7.87;;
1010;SDS011;494;48.744;10.106;2023-04-29T04:12:38;13.97;;;7.50;;
1010;SDS011;494;48.744;10.106;2023-04-29T04:15:09;13.03;;;6.70;;
1010;SDS011;494;48.744;10.106;2023-04-29T04:17:38;12.60;;;6.73;;
1010;SDS011;494;48.744;10.106;2023-04-29T04:20:08;12.43;;;6.70;;
1010;SDS011;494;48.744;10.106;2023-04-29T04:22:40;13.57;;;7.10;;
1010;SDS011;494;48.744;10.106;2023-04-29T04:25:09;16.87;;;6.83;;
1010;SDS011;494;48.744;10.106;2023-04-29T04:27:39;13.10;;;6.73;;
1010;SDS011;494;48.744;10.106;2023-04-29T04:30:09;16.03;;;7.07;;
1010;SDS011;494;48.744;10.106;2023-04-29T04:32:38;17.70;;;7.57;;
1010;SDS011;494;48.744;10.106;2023-04-29T04:35:08;15.27;;;7.93;;
1010;SDS011;494;48.744;10.106;2023-04-29T04:37:40;19.03;;;8.33;;
1010;SDS011;494;48.744;10.106;2023-04-29T04:40:10;31.07;;;8.20;;
1010;SDS011;494;48.744;10.106;2023-04-29T04:42:40;33.47;;;9.30;;
1010;SDS011;494;48.744;10.106;2023-04-29T04:45:10;20.57;;;8.53;;
1010;SDS011;494;48.744;10.106;2023-04-29T04:47:39;14.70;;;8.00;;
1010;SDS011;494;48.744;10.106;2023-04-29T04:50:08;20.03;;;8.63;;
1010;SDS011;494;48.744;10.106;2023-04-29T04:52:38;23.53;;;8.70;;
1010;SDS011;494;48.744;10.106;2023-04-29T04:55:08;16.03;;;9.50;;
1010;SDS011;494;48.744;10.106;2023-04-29T04:57:40;20.50;;;10.40;;
1010;SDS011;494;48.744;10.106;2023-04-29T05:00:10;27.20;;;11.07;;
1010;SDS011;494;48.744;10.106;2023-04-29T05:02:40;45.07;;;12.20;;
1010;SDS011;494;48.744;10.106;2023-04-29T05:05:11;72.63;;;13.33;;
1010;SDS011;494;48.744;10.106;2023-04-29T05:07:40;27.60;;;10.50;;
1010;SDS011;494;48.744;10.106;2023-04-29T05:10:09;36.27;;;9.80;;
1010;SDS011;494;48.744;10.106;2023-04-29T05:12:39;24.53;;;10.03;;
1010;SDS011;494;48.744;10.106;2023-04-29T05:15:09;21.47;;;11.53;;
1010;SDS011;494;48.744;10.106;2023-04-29T05:17:40;37.20;;;12.40;;
1010;SDS011;494;48.744;10.106;2023-04-29T05:20:11;28.03;;;11.47;;
1010;SDS011;494;48.744;10.106;2023-04-29T05:22:40;21.83;;;12.80;;
1010;SDS011;494;48.744;10.106;2023-04-29T05:25:10;23.13;;;13.13;;
1010;SDS011;494;48.744;10.106;2023-04-29T05:27:39;23.60;;;14.50;;
1010;SDS011;494;48.744;10.106;2023-04-29T05:30:10;21.73;;;13.10;;
1010;SDS011;494;48.744;10.106;2023-04-29T05:32:43;18.23;;;13.03;;
1010;SDS011;494;48.744;10.106;2023-04-29T05:35:14;17.00;;;10.87;;
1010;SDS011;494;48.744;10.106;2023-04-29T05:37:44;16.23;;;10.60;;
1010;SDS011;494;48.744;10.106;2023-04-29T05:40:14;17.07;;;11.80;;
1010;SDS011;494;48.744;10.106;2023-04-29T05:42:43;17.47;;;10.43;;
1010;SDS011;494;48.744;10.106;2023-04-29T05:45:19;16.67;;;11.33;;
1010;SDS011;494;48.744;10.106;2023-04-29T05:47:48;17.73;;;11.30;;
1010;SDS011;494;48.744;10.106;2023-04-29T05:50:19;20.23;;;12.30;;
1010;SDS011;494;48.744;10.106;2023-04-29T05:52:47;19.63;;;11.70;;
1010;SDS011;494;48.744;10.106;2023-04-29T05:55:17;16.80;;;10.50;;
1010;SDS011;494;48.744;10.106;2023-04-29T05:57:48;14.40;;;9.33;;
1010;SDS011;494;48.744;10.106;2023-04-29T06:00:18;15.70;;;9.87;;
1010;SDS011;494;48.744;10.106;2023-04-29T06:02:47;15.80;;;9.50;;
1010;SDS011;494;48.744;10.106;2023-04-29T06:05:26;16.10;;;9.60;;
1010;SDS011;494;48.744;10.106;2023-04-29T06:07:56;15.93;;;9.80;;
1010;SDS011;494;48.744;10.106;2023-04-29T06:10:25;16.33;;;10.03;;
1010;SDS011;494;48.744;10.106;2023-04-29T06:12:54;19.17;;;11.03;;
1010;SDS011;494;48.744;10.106;2023-04-29T06:15:23;15.70;;;10.53;;
1010;SDS011;494;48.744;10.106;2023-04-29T06:17:52;15.90;;;10.20;;
1010;SDS011;494;48.744;10.106;2023-04-29T06:20:21;17.53;;;11.50;;
1010;SDS011;494;48.744;10.106;2023-04-29T06:22:51;18.77;;;11.80;;
1010;SDS011;494;48.744;10.106;2023-04-29T06:25:20;19.80;;;12.93;;
1010;SDS011;494;48.744;10.106;2023-04-29T06:27:50;20.03;;;12.93;;
1010;SDS011;494;48.744;10.106;2023-04-29T06:30:19;20.57;;;14.03;;
1010;SDS011;494;48.744;10.106;2023-04-29T07:02:25;18.13;;;12.43;;
1010;SDS011;494;48.744;10.106;2023-04-29T07:05:10;16.47;;;14.07;;
1010;SDS011;494;48.744;10.106;2023-04-29T07:07:46;15.90;;;9.13;;
1010;SDS011;494;48.744;10.106;2023-04-29T07:10:21;15.10;;;8.73;;
1010;SDS011;494;48.744;10.106;2023-04-29T07:13:05;14.80;;;8.20;;
1010;SDS011;494;48.744;10.106;2023-04-29T07:15:35;13.27;;;8.00;;
1010;SDS011;494;48.744;10.106;2023-04-29T07:18:13;14.00;;;8.37;;
1010;SDS011;494;48.744;10.106;2023-04-29T07:20:52;13.47;;;8.20;;
1010;SDS011;494;48.744;10.106;2023-04-29T07:23:32;14.10;;;8.17;;
1010;SDS011;494;48.744;10.106;2023-04-29T07:26:09;14.00;;;7.90;;
1010;SDS011;494;48.744;10.106;2023-04-29T07:28:39;17.37;;;8.70;;
1010;SDS011;494;48.744;10.106;2023-04-29T07:31:08;14.90;;;8.87;;
1010;SDS011;494;48.744;10.106;2023-04-29T07:33:38;13.17;;;8.10;;
1010;SDS011;494;48.744;10.106;2023-04-29T07:36:07;13.67;;;8.00;;
1010;SDS011;494;48.744;10.106;2023-04-29T07:38:40;16.10;;;9.10;;
1010;SDS011;494;48.744;10.106;2023-04-29T07:41:14;13.20;;;7.37;;
1010;SDS011;494;48.744;10.106;2023-04-29T07:43:43;13.37;;;6.80;;
1010;SDS011;494;48.744;10.106;2023-04-29T07:46:12;12.57;;;7.23;;
1010;SDS011;494;48.744;10.106;2023-04-29T07:48:42;14.10;;;10.00;;
1010;SDS011;494;48.744;10.106;2023-04-29T07:51:11;13.87;;;9.30;;
1010;SDS011;494;48.744;10.106;2023-04-29T07:53:44;13.13;;;9.10;;
1010;SDS011;494;48.744;10.106;2023-04-29T07:56:21;13.50;;;9.53;;
1010;SDS011;494;48.744;10.106;2023-04-29T07:58:52;12.53;;;8.80;;
1010;SDS011;494;48.744;10.106;2023-04-29T08:01:24;14.43;;;9.10;;
1010;SDS011;494;48.744;10.106;2023-04-29T08:03:54;16.23;;;9.77;;
1010;SDS011;494;48.744;10.106;2023-04-29T08:06:25;15.30;;;10.47;;
1010;SDS011;494;48.744;10.106;2023-04-29T08:08:55;14.97;;;9.67;;
1010;SDS011;494;48.744;10.106;2023-04-29T08:11:25;13.00;;;9.40;;
1010;SDS011;494;48.744;10.106;2023-04-29T08:14:01;13.17;;;9.33;;
1010;SDS011;494;48.744;10.106;2023-04-29T08:16:30;12.30;;;8.80;;
1010;SDS011;494;48.744;10.106;2023-04-29T08:19:00;14.57;;;10.10;;
1010;SDS011;494;48.744;10.106;2023-04-29T08:21:30;15.03;;;10.87;;
1010;SDS011;494;48.744;10.106;2023-04-29T08:24:00;15.50;;;9.60;;
1010;SDS011;494;48.744;10.106;2023-04-29T08:26:40;14.37;;;10.30;;
1010;SDS011;494;48.744;10.106;2023-04-29T08:29:13;13.93;;;9.53;;
1010;SDS011;494;48.744;10.106;2023-04-29T08:31:42;11.87;;;6.43;;
1010;SDS011;494;48.744;10.106;2023-04-29T08:34:12;10.67;;;5.60;;
1010;SDS011;494;48.744;10.106;2023-04-29T08:36:45;11.33;;;5.00;;
1010;SDS011;494;48.744;10.106;2023-04-29T08:39:25;10.50;;;5.20;;
1010;SDS011;494;48.744;10.106;2023-04-29T08:42:02;11.27;;;5.00;;
1010;SDS011;494;48.744;10.106;2023-04-29T08:44:37;10.40;;;4.37;;
1010;SDS011;494;48.744;10.106;2023-04-29T08:47:12;10.30;;;4.57;;
1010;SDS011;494;48.744;10.106;2023-04-29T08:49:43;11.60;;;4.80;;
1010;SDS011;494;48.744;10.106;2023-04-29T08:52:18;10.60;;;4.30;;
1010;SDS011;494;48.744;10.106;2023-04-29T08:54:48;9.93;;;4.53;;
1010;SDS011;494;48.744;10.106;2023-04-29T08:57:19;10.23;;;4.40;;
1010;SDS011;494;48.744;10.106;2023-04-29T08:59:53;9.67;;;4.57;;
1010;SDS011;494;48.744;10.106;2023-04-29T09:02:22;10.37;;;4.23;;
1010;SDS011;494;48.744;10.106;2023-04-29T09:04:54;14.50;;;6.20;;
1010;SDS011;494;48.744;10.106;2023-04-29T09:07:37;10.27;;;4.40;;
1010;SDS011;494;48.744;10.106;2023-04-29T09:10:22;11.00;;;4.50;;
1010;SDS011;494;48.744;10.106;2023-04-29T09:12:59;11.00;;;5.00;;
1010;SDS011;494;48.744;10.106;2023-04-29T09:15:34;10.33;;;4.33;;
1010;SDS011;494;48.744;10.106;2023-04-29T09:18:09;9.87;;;4.20;;
1010;SDS011;494;48.744;10.106;2023-04-29T09:20:40;11.00;;;4.40;;
1010;SDS011;494;48.744;10.106;2023-04-29T09:23:10;9.67;;;4.20;;
1010;SDS011;494;48.744;10.106;2023-04-29T09:25:41;10.23;;;4.50;;
1010;SDS011;494;48.744;10.106;2023-04-29T09:28:25;9.10;;;3.70;;
1010;SDS011;494;48.744;10.106;2023-04-29T09:30:59;8.80;;;3.60;;
1010;SDS011;494;48.744;10.106;2023-04-29T09:33:48;9.17;;;3.70;;
1010;SDS011;494;48.744;10.106;2023-04-29T09:39:15;9.60;;;3.57;;
1010;SDS011;494;48.744;10.106;2023-04-29T09:41:59;8.87;;;3.47;;
1010;SDS011;494;48.744;10.106;2023-04-29T09:44:32;8.60;;;3.10;;
1010;SDS011;494;48.744;10.106;2023-04-29T09:47:04;9.20;;;3.30;;
1010;SDS011;494;48.744;10.106;2023-04-29T09:49:40;8.53;;;2.53;;
1010;SDS011;494;48.744;10.106;2023-04-29T09:52:12;9.00;;;3.00;;
1010;SDS011;494;48.744;10.106;2023-04-29T09:54:44;8.77;;;2.93;;
1010;SDS011;494;48.744;10.106;2023-04-29T09:57:13;8.73;;;3.23;;
1010;SDS011;494;48.744;10.106;2023-04-29T09:59:46;8.40;;;3.30;;
1010;SDS011;494;48.744;10.106;2023-04-29T10:02:15;9.10;;;3.20;;
1010;SDS011;494;48.744;10.106;2023-04-29T10:04:50;8.70;;;2.90;;
1010;SDS011;494;48.744;10.106;2023-04-29T10:07:23;11.00;;;3.10;;
1010;SDS011;494;48.744;10.106;2023-04-29T10:09:54;8.80;;;2.80;;
1010;SDS011;494;48.744;10.106;2023-04-29T10:12:26;8.27;;;2.80;;
1010;SDS011;494;48.744;10.106;2023-04-29T10:15:00;9.07;;;3.30;;
1010;SDS011;494;48.744;10.106;2023-04-29T10:17:35;8.50;;;2.90;;
1010;SDS011;494;48.744;10.106;2023-04-29T10:20:11;8.77;;;3.40;;
1010;SDS011;494;48.744;10.106;2023-04-29T10:22:45;8.70;;;3.00;;
1010;SDS011;494;48.744;10.106;2023-04-29T10:25:22;12.87;;;4.40;;
1010;SDS011;494;48.744;10.106;2023-04-29T10:27:53;8.40;;;3.10;;
1010;SDS011;494;48.744;10.106;2023-04-29T10:30:26;8.77;;;3.13;;
1010;SDS011;494;48.744;10.106;2023-04-29T10:32:56;8.50;;;2.70;;
1010;SDS011;494;48.744;10.106;2023-04-29T10:35:29;8.87;;;3.10;;
1010;SDS011;494;48.744;10.106;2023-04-29T10:38:00;9.07;;;2.83;;
1010;SDS011;494;48.744;10.106;2023-04-29T10:40:41;8.40;;;2.67;;
1010;SDS011;494;48.744;10.106;2023-04-29T10:43:13;9.57;;;2.80;;
1010;SDS011;494;48.744;10.106;2023-04-29T10:45:44;8.90;;;3.20;;
1010;SDS011;494;48.744;10.106;2023-04-29T10:48:13;8.80;;;3.10;;
1010;SDS011;494;48.744;10.106;2023-04-29T10:51:00;9.60;;;3.70;;
1010;SDS011;494;48.744;10.106;2023-04-29T10:53:30;8.53;;;2.87;;
1010;SDS011;494;48.744;10.106;2023-04-29T10:56:02;8.43;;;2.83;;
1010;SDS011;494;48.744;10.106;2023-04-29T10:58:36;9.50;;;3.13;;
1010;SDS011;494;48.744;10.106;2023-04-29T11:01:14;9.67;;;3.53;;
1010;SDS011;494;48.744;10.106;2023-04-29T11:03:48;8.70;;;3.00;;
1010;SDS011;494;48.744;10.106;2023-04-29T11:06:25;8.67;;;2.87;;
1010;SDS011;494;48.744;10.106;2023-04-29T11:09:08;12.03;;;3.10;;
1010;SDS011;494;48.744;10.106;2023-04-29T11:11:40;11.03;;;3.57;;
1010;SDS011;494;48.744;10.106;2023-04-29T11:14:20;9.60;;;3.30;;
1010;SDS011;494;48.744;10.106;2023-04-29T11:16:55;8.83;;;2.83;;
1010;SDS011;494;48.744;10.106;2023-04-29T11:19:27;11.80;;;2.87;;
1010;SDS011;494;48.744;10.106;2023-04-29T11:22:10;9.47;;;5.03;;
1010;SDS011;494;48.744;10.106;2023-04-29T11:24:54;13.63;;;3.47;;
1010;SDS011;494;48.744;10.106;2023-04-29T11:27:26;14.20;;;3.53;;
1010;SDS011;494;48.744;10.106;2023-04-29T11:29:59;11.10;;;3.53;;
1010;SDS011;494;48.744;10.106;2023-04-29T11:32:32;9.20;;;3.10;;
1010;SDS011;494;48.744;10.106;2023-04-29T11:35:07;11.90;;;3.47;;
1010;SDS011;494;48.744;10.106;2023-04-29T11:37:38;12.77;;;4.10;;
1010;SDS011;494;48.744;10.106;2023-04-29T11:40:10;9.63;;;3.50;;
1010;SDS011;494;48.744;10.106;2023-04-29T11:42:42;12.80;;;4.13;;
1010;SDS011;494;48.744;10.106;2023-04-29T11:45:13;9.90;;;3.70;;
1010;SDS011;494;48.744;10.106;2023-04-29T11:47:46;18.47;;;4.93;;
1010;SDS011;494;48.744;10.106;2023-04-29T11:50:19;13.97;;;5.10;;
1010;SDS011;494;48.744;10.106;2023-04-29T11:52:49;18.37;;;4.90;;
1010;SDS011;494;48.744;10.106;2023-04-29T11:55:17;9.30;;;3.90;;
1010;SDS011;494;48.744;10.106;2023-04-29T11:57:47;30.23;;;6.53;;
1010;SDS011;494;48.744;10.106;2023-04-29T12:00:18;10.40;;;4.07;;
1010;SDS011;494;48.744;10.106;2023-04-29T12:02:49;9.80;;;4.00;;
1010;SDS011;494;48.744;10.106;2023-04-29T12:05:18;8.87;;;3.60;;
1010;SDS011;494;48.744;10.106;2023-04-29T12:07:47;9.83;;;3.97;;
1010;SDS011;494;48.744;10.106;2023-04-29T12:10:17;8.70;;;3.00;;
1010;SDS011;494;48.744;10.106;2023-04-29T12:12:47;9.67;;;3.27;;
1010;SDS011;494;48.744;10.106;2023-04-29T12:15:16;9.47;;;3.13;;
1010;SDS011;494;48.744;10.106;2023-04-29T12:17:45;8.90;;;3.13;;
1010;SDS011;494;48.744;10.106;2023-04-29T12:20:16;10.10;;;3.13;;
1010;SDS011;494;48.744;10.106;2023-04-29T12:22:44;9.13;;;3.07;;
1010;SDS011;494;48.744;10.106;2023-04-29T12:25:14;18.53;;;3.83;;
1010;SDS011;494;48.744;10.106;2023-04-29T12:27:43;17.87;;;3.77;;
1010;SDS011;494;48.744;10.106;2023-04-29T12:30:13;9.47;;;3.43;;
1010;SDS011;494;48.744;10.106;2023-04-29T12:32:42;14.63;;;7.30;;
1010;SDS011;494;48.744;10.106;2023-04-29T12:35:15;9.80;;;3.70;;
1010;SDS011;494;48.744;10.106;2023-04-29T12:37:49;8.83;;;3.00;;
1010;SDS011;494;48.744;10.106;2023-04-29T12:40:18;9.10;;;3.53;;
1010;SDS011;494;48.744;10.106;2023-04-29T12:42:47;9.30;;;3.47;;
1010;SDS011;494;48.744;10.106;2023-04-29T12:45:26;9.47;;;4.80;;
1010;SDS011;494;48.744;10.106;2023-04-29T12:47:57;10.33;;;4.30;;
1010;SDS011;494;48.744;10.106;2023-04-29T12:50:31;9.20;;;3.37;;
1010;SDS011;494;48.744;10.106;2023-04-29T12:53:04;9.20;;;3.20;;
1010;SDS011;494;48.744;10.106;2023-04-29T12:55:36;10.17;;;4.10;;
1010;SDS011;494;48.744;10.106;2023-04-29T12:58:05;10.23;;;4.17;;
1010;SDS011;494;48.744;10.106;2023-04-29T13:00:35;9.97;;;3.00;;
1010;SDS011;494;48.744;10.106;2023-04-29T13:03:04;9.70;;;3.93;;
1010;SDS011;494;48.744;10.106;2023-04-29T13:05:35;9.13;;;3.43;;
1010;SDS011;494;48.744;10.106;2023-04-29T13:08:06;9.90;;;3.23;;
1010;SDS011;494;48.744;10.106;2023-04-29T13:10:35;10.20;;;3.53;;
1010;SDS011;494;48.744;10.106;2023-04-29T13:13:04;12.73;;;3.50;;
1010;SDS011;494;48.744;10.106;2023-04-29T13:15:35;9.17;;;3.40;;
1010;SDS011;494;48.744;10.106;2023-04-29T13:18:06;9.67;;;3.73;;
1010;SDS011;494;48.744;10.106;2023-04-29T13:20:36;9.47;;;3.57;;
1010;SDS011;494;48.744;10.106;2023-04-29T13:23:08;9.50;;;3.30;;
1010;SDS011;494;48.744;10.106;2023-04-29T13:25:40;9.90;;;3.20;;
1010;SDS011;494;48.744;10.106;2023-04-29T13:28:09;10.20;;;3.60;;
1010;SDS011;494;48.744;10.106;2023-04-29T13:30:38;13.90;;;9.80;;
1010;SDS011;494;48.744;10.106;2023-04-29T13:33:07;10.27;;;4.27;;
1010;SDS011;494;48.744;10.106;2023-04-29T13:35:40;10.77;;;4.10;;
1010;SDS011;494;48.744;10.106;2023-04-29T13:38:19;13.57;;;4.97;;
1010;SDS011;494;48.744;10.106;2023-04-29T13:40:51;9.53;;;4.03;;
1010;SDS011;494;48.744;10.106;2023-04-29T13:43:22;12.67;;;5.90;;
1010;SDS011;494;48.744;10.106;2023-04-29T13:46:05;11.23;;;8.00;;
1010;SDS011;494;48.744;10.106;2023-04-29T13:48:35;12.70;;;6.10;;
1010;SDS011;494;48.744;10.106;2023-04-29T13:51:11;12.20;;;5.70;;
1010;SDS011;494;48.744;10.106;2023-04-29T13:54:02;13.00;;;4.90;;
1010;SDS011;494;48.744;10.106;2023-04-29T13:56:38;10.07;;;4.07;;
1010;SDS011;494;48.744;10.106;2023-04-29T13:59:29;11.13;;;4.90;;
1010;SDS011;494;48.744;10.106;2023-04-29T14:02:13;11.47;;;4.37;;
1010;SDS011;494;48.744;10.106;2023-04-29T14:04:46;10.70;;;5.10;;
1010;SDS011;494;48.744;10.106;2023-04-29T14:07:17;11.50;;;5.30;;
1010;SDS011;494;48.744;10.106;2023-04-29T14:09:46;10.27;;;4.40;;
1010;SDS011;494;48.744;10.106;2023-04-29T14:12:16;13.67;;;6.80;;
1010;SDS011;494;48.744;10.106;2023-04-29T14:14:45;15.50;;;7.80;;
1010;SDS011;494;48.744;10.106;2023-04-29T14:17:14;15.30;;;8.17;;
1010;SDS011;494;48.744;10.106;2023-04-29T14:19:47;14.00;;;7.50;;
1010;SDS011;494;48.744;10.106;2023-04-29T14:22:20;13.70;;;7.77;;
1010;SDS011;494;48.744;10.106;2023-04-29T14:24:54;19.20;;;8.90;;
1010;SDS011;494;48.744;10.106;2023-04-29T14:27:27;18.47;;;8.27;;
1010;SDS011;494;48.744;10.106;2023-04-29T14:30:00;14.10;;;7.70;;
1010;SDS011;494;48.744;10.106;2023-04-29T14:32:32;15.40;;;8.03;;
1010;SDS011;494;48.744;10.106;2023-04-29T14:35:01;12.73;;;6.77;;
1010;SDS011;494;48.744;10.106;2023-04-29T14:37:35;15.70;;;7.17;;
1010;SDS011;494;48.744;10.106;2023-04-29T14:40:05;12.80;;;7.10;;
1010;SDS011;494;48.744;10.106;2023-04-29T14:42:34;16.60;;;7.73;;
1010;SDS011;494;48.744;10.106;2023-04-29T14:45:04;13.00;;;6.43;;
1010;SDS011;494;48.744;10.106;2023-04-29T14:47:34;13.80;;;7.07;;
1010;SDS011;494;48.744;10.106;2023-04-29T14:50:04;14.13;;;8.10;;
1010;SDS011;494;48.744;10.106;2023-04-29T14:52:37;14.77;;;8.50;;
1010;SDS011;494;48.744;10.106;2023-04-29T14:55:06;17.50;;;8.30;;
1010;SDS011;494;48.744;10.106;2023-04-29T14:57:36;16.47;;;8.47;;
1010;SDS011;494;48.744;10.106;2023-04-29T15:00:05;14.80;;;8.67;;
1010;SDS011;494;48.744;10.106;2023-04-29T15:02:36;15.13;;;8.13;;
1010;SDS011;494;48.744;10.106;2023-04-29T15:05:06;15.63;;;8.60;;
1010;SDS011;494;48.744;10.106;2023-04-29T15:07:37;15.60;;;8.93;;
1010;SDS011;494;48.744;10.106;2023-04-29T15:10:07;17.53;;;8.90;;
1010;SDS011;494;48.744;10.106;2023-04-29T15:12:36;15.27;;;8.67;;
1010;SDS011;494;48.744;10.106;2023-04-29T15:15:08;16.87;;;8.70;;
1010;SDS011;494;48.744;10.106;2023-04-29T15:17:37;15.20;;;9.57;;
1010;SDS011;494;48.744;10.106;2023-04-29T15:20:06;18.77;;;10.47;;
1010;SDS011;494;48.744;10.106;2023-04-29T15:22:38;18.37;;;9.77;;
1010;SDS011;494;48.744;10.106;2023-04-29T15:25:08;17.10;;;10.50;;
1010;SDS011;494;48.744;10.106;2023-04-29T15:27:37;17.37;;;10.30;;
1010;SDS011;494;48.744;10.106;2023-04-29T15:30:07;20.07;;;10.57;;
1010;SDS011;494;48.744;10.106;2023-04-29T15:32:38;16.70;;;9.30;;
1010;SDS011;494;48.744;10.106;2023-04-29T15:35:08;15.30;;;9.13;;
1010;SDS011;494;48.744;10.106;2023-04-29T15:37:40;16.80;;;10.67;;
1010;SDS011;494;48.744;10.106;2023-04-29T15:40:09;18.20;;;10.10;;
1010;SDS011;494;48.744;10.106;2023-04-29T15:42:39;16.97;;;10.33;;
1010;SDS011;494;48.744;10.106;2023-04-29T15:45:08;15.17;;;9.77;;
1010;SDS011;494;48.744;10.106;2023-04-29T15:47:38;17.20;;;10.17;;
1010;SDS011;494;48.744;10.106;2023-04-29T15:50:07;14.93;;;8.80;;
1010;SDS011;494;48.744;10.106;2023-04-29T15:52:39;15.20;;;8.70;;
1010;SDS011;494;48.744;10.106;2023-04-29T15:55:09;14.20;;;8.07;;
1010;SDS011;494;48.744;10.106;2023-04-29T15:57:38;15.00;;;8.80;;
1010;SDS011;494;48.744;10.106;2023-04-29T16:00:09;16.00;;;8.53;;
1010;SDS011;494;48.744;10.106;2023-04-29T16:02:40;13.60;;;8.50;;